Time;durP1;ratioP1;P1;durP2;ratioP2;P2;SDS_P1;SDS_P2;PMS_P1;PMS_P2;Temp;Humidity;BMP_temperature;BMP_pressure;BME280_temperature;BME280_humidity;BME280_pressure;Samples;Min_cycle;Max_cycle;Signal;HPM_P1;HPM_P2
2023/05/25 00:02:05;;;;;;;1.70;0.97;;;;;;;;;;5027538;28;59995;-69
2023/05/25 00:04:33;;;;;;;1.25;0.80;;;;;;;;;;5023921;28;58763;-67
2023/05/25 00:06:58;;;;;;;0.77;0.77;;;;;;;;;;5024707;28;59114;-66
2023/05/25 00:09:23;;;;;;;1.23;0.50;;;;;;;;;;5023952;28;58972;-66
2023/05/25 00:11:48;;;;;;;0.80;0.80;;;;;;;;;;5021129;28;58734;-66
2023/05/25 00:14:13;;;;;;;1.98;1.10;;;;;;;;;;5017031;28;58752;-66
2023/05/25 00:16:39;;;;;;;1.20;0.73;;;;;;;;;;5018056;28;58758;-67
2023/05/25 00:19:04;;;;;;;0.60;0.60;;;;;;;;;;5021232;28;58506;-68
2023/05/25 00:21:29;;;;;;;0.95;0.95;;;;;;;;;;5021238;28;59082;-69
2023/05/25 00:23:55;;;;;;;1.90;1.80;;;;;;;;;;5017934;28;58552;-68
2023/05/25 00:26:20;;;;;;;0.73;0.73;;;;;;;;;;5020946;28;58325;-68
2023/05/25 00:28:45;;;;;;;1.42;0.95;;;;;;;;;;5021756;28;58749;-69
2023/05/25 00:31:10;;;;;;;1.07;0.70;;;;;;;;;;5020279;28;58400;-68
2023/05/25 00:33:35;;;;;;;2.22;0.65;;;;;;;;;;5023259;28;58283;-66
2023/05/25 00:36:02;;;;;;;1.05;0.68;;;;;;;;;;5021524;28;58218;-65
2023/05/25 00:38:27;;;;;;;1.35;0.57;;;;;;;;;;5020222;28;58144;-68
2023/05/25 00:40:55;;;;;;;0.60;0.60;;;;;;;;;;5017783;28;59592;-65
2023/05/25 00:43:21;;;;;;;1.00;0.73;;;;;;;;;;5020788;28;58483;-66
2023/05/25 00:45:46;;;;;;;0.70;0.70;;;;;;;;;;5016953;28;58467;-63
2023/05/25 00:48:12;;;;;;;0.60;0.60;;;;;;;;;;5019881;28;58405;-67
2023/05/25 00:50:41;;;;;;;1.17;0.60;;;;;;;;;;5019617;28;58831;-68
2023/05/25 00:53:07;;;;;;;1.70;0.90;;;;;;;;;;5020665;28;58767;-66
2023/05/25 00:55:38;;;;;;;1.05;0.95;;;;;;;;;;5018716;28;58518;-66
2023/05/25 00:58:05;;;;;;;1.75;1.15;;;;;;;;;;5019309;28;58802;-66
2023/05/25 01:00:31;;;;;;;0.88;0.88;;;;;;;;;;5018548;28;58633;-64
2023/05/25 01:02:58;;;;;;;1.30;0.57;;;;;;;;;;5021289;28;58895;-65
2023/05/25 01:05:24;;;;;;;1.45;0.75;;;;;;;;;;5020093;28;58245;-61
2023/05/25 01:07:51;;;;;;;1.70;0.95;;;;;;;;;;5016070;28;59070;-66
2023/05/25 01:10:19;;;;;;;0.65;0.65;;;;;;;;;;5017243;28;58415;-64
2023/05/25 01:12:45;;;;;;;1.00;0.90;;;;;;;;;;5021701;28;58851;-65
2023/05/25 01:15:10;;;;;;;1.10;0.60;;;;;;;;;;5022588;28;59029;-66
2023/05/25 01:17:36;;;;;;;0.80;0.70;;;;;;;;;;5019351;28;58804;-65
2023/05/25 01:20:04;;;;;;;1.02;0.70;;;;;;;;;;5018001;28;58974;-66
2023/05/25 01:22:37;;;;;;;1.52;1.15;;;;;;;;;;5017104;28;58777;-65
2023/05/25 01:25:06;;;;;;;0.73;0.73;;;;;;;;;;5019835;28;58334;-66
2023/05/25 01:27:34;;;;;;;0.55;0.55;;;;;;;;;;5016383;28;58435;-64
2023/05/25 01:29:59;;;;;;;;;;;;;;;;;;5017524;28;58133;-64
2023/05/25 01:32:25;;;;;;;0.63;0.60;;;;;;;;;;5018918;28;58817;-66
2023/05/25 01:34:51;;;;;;;1.38;0.77;;;;;;;;;;5018691;28;58882;-66
2023/05/25 01:37:18;;;;;;;1.20;1.00;;;;;;;;;;5017598;28;58381;-65
2023/05/25 01:39:43;;;;;;;1.08;0.98;;;;;;;;;;5020035;28;59141;-66
2023/05/25 01:42:08;;;;;;;1.20;1.07;;;;;;;;;;5018303;28;58407;-67
2023/05/25 01:44:34;;;;;;;0.83;0.40;;;;;;;;;;5018583;28;58454;-66
2023/05/25 01:47:08;;;;;;;0.40;0.40;;;;;;;;;;5017660;28;59485;-66
2023/05/25 01:49:42;;;;;;;0.90;0.80;;;;;;;;;;5017754;28;58441;-67
2023/05/25 01:52:25;;;;;;;0.70;0.52;;;;;;;;;;5017564;28;58445;-66
2023/05/25 01:54:52;;;;;;;0.82;0.60;;;;;;;;;;5016595;28;58981;-66
2023/05/25 01:57:18;;;;;;;0.60;0.60;;;;;;;;;;5021579;28;58738;-65
2023/05/25 01:59:45;;;;;;;0.65;0.60;;;;;;;;;;5016172;28;58711;-66
2023/05/25 02:02:11;;;;;;;0.43;0.40;;;;;;;;;;5016819;28;58310;-66
2023/05/25 02:04:36;;;;;;;0.52;0.52;;;;;;;;;;5015785;28;58821;-66
2023/05/25 02:07:06;;;;;;;0.57;0.43;;;;;;;;;;5020590;28;59006;-66
2023/05/25 02:09:31;;;;;;;1.08;0.60;;;;;;;;;;5018445;28;58660;-64
2023/05/25 02:11:56;;;;;;;0.65;0.55;;;;;;;;;;5018189;28;58666;-67
2023/05/25 02:14:21;;;;;;;0.60;0.43;;;;;;;;;;5017846;28;58420;-66
2023/05/25 02:16:47;;;;;;;0.77;0.77;;;;;;;;;;5017127;28;59765;-66
2023/05/25 02:19:13;;;;;;;1.02;0.70;;;;;;;;;;5017285;28;59322;-66
2023/05/25 02:21:39;;;;;;;0.85;0.50;;;;;;;;;;5019605;28;58736;-66
2023/05/25 02:24:05;;;;;;;1.38;0.90;;;;;;;;;;5014357;28;59065;-65
2023/05/25 02:26:30;;;;;;;0.70;0.70;;;;;;;;;;5018627;28;58871;-65
2023/05/25 02:28:55;;;;;;;0.57;0.50;;;;;;;;;;5017114;28;58550;-65
2023/05/25 02:31:20;;;;;;;0.63;0.63;;;;;;;;;;5018257;28;58488;-66
2023/05/25 02:33:46;;;;;;;0.60;0.53;;;;;;;;;;5018795;28;59075;-66
2023/05/25 02:36:11;;;;;;;0.40;0.40;;;;;;;;;;5013856;28;58542;-65
2023/05/25 02:38:36;;;;;;;0.82;0.82;;;;;;;;;;5018296;28;58642;-66
2023/05/25 02:41:01;;;;;;;0.93;0.80;;;;;;;;;;5020048;28;58323;-66
2023/05/25 02:43:26;;;;;;;0.73;0.55;;;;;;;;;;5018842;28;58492;-67
2023/05/25 02:45:51;;;;;;;0.55;0.50;;;;;;;;;;5017999;28;58650;-66
2023/05/25 02:48:16;;;;;;;0.57;0.40;;;;;;;;;;5015313;28;58742;-66
2023/05/25 02:50:42;;;;;;;0.70;0.70;;;;;;;;;;5018840;28;58733;-66
2023/05/25 02:53:07;;;;;;;1.03;0.90;;;;;;;;;;5017496;28;58422;-64
2023/05/25 02:55:32;;;;;;;0.43;0.38;;;;;;;;;;5018029;28;58596;-66
2023/05/25 02:57:58;;;;;;;0.70;0.70;;;;;;;;;;5014979;28;58197;-66
2023/05/25 03:00:23;;;;;;;0.63;0.60;;;;;;;;;;5015151;28;59518;-66
2023/05/25 03:02:49;;;;;;;0.60;0.60;;;;;;;;;;5019205;28;58537;-64
2023/05/25 03:05:15;;;;;;;1.00;0.55;;;;;;;;;;5018263;28;58757;-65
2023/05/25 03:07:40;;;;;;;0.57;0.52;;;;;;;;;;5016813;28;58436;-66
2023/05/25 03:10:06;;;;;;;0.57;0.57;;;;;;;;;;5021017;28;58468;-66
2023/05/25 03:12:31;;;;;;;0.47;0.47;;;;;;;;;;5020306;28;59263;-65
2023/05/25 03:14:56;;;;;;;0.80;0.80;;;;;;;;;;5021274;28;59673;-66
2023/05/25 03:17:21;;;;;;;0.50;0.50;;;;;;;;;;5020804;28;59269;-67
2023/05/25 03:19:46;;;;;;;1.13;0.97;;;;;;;;;;5016725;28;60407;-66
2023/05/25 03:22:12;;;;;;;1.33;0.70;;;;;;;;;;5016107;28;58451;-66
2023/05/25 03:24:40;;;;;;;0.52;0.52;;;;;;;;;;5020149;28;58426;-64
2023/05/25 03:27:05;;;;;;;;;;;;;;;;;;5022226;28;64268;-63
2023/05/25 03:29:30;;;;;;;0.73;0.43;;;;;;;;;;5019847;28;58843;-66
2023/05/25 03:31:55;;;;;;;0.70;0.70;;;;;;;;;;5019050;28;58407;-66
2023/05/25 03:34:20;;;;;;;0.70;0.70;;;;;;;;;;5021068;28;58634;-65
2023/05/25 03:36:46;;;;;;;0.98;0.68;;;;;;;;;;5018452;28;58387;-66
2023/05/25 03:39:12;;;;;;;0.82;0.75;;;;;;;;;;5022431;28;59888;-65
2023/05/25 03:41:37;;;;;;;0.70;0.70;;;;;;;;;;5023625;28;58330;-65
2023/05/25 03:44:02;;;;;;;0.80;0.63;;;;;;;;;;5018319;28;58273;-67
2023/05/25 03:46:27;;;;;;;0.93;0.80;;;;;;;;;;5021828;28;58925;-65
2023/05/25 03:48:52;;;;;;;0.50;0.50;;;;;;;;;;5018154;28;58792;-66
2023/05/25 03:51:17;;;;;;;0.53;0.53;;;;;;;;;;5019392;28;57861;-66
2023/05/25 03:53:42;;;;;;;0.50;0.50;;;;;;;;;;5020600;28;58385;-65
2023/05/25 03:56:08;;;;;;;1.27;0.75;;;;;;;;;;5020453;28;57987;-66
2023/05/25 03:58:33;;;;;;;1.02;0.57;;;;;;;;;;5015991;28;58799;-67
2023/05/25 04:00:58;;;;;;;0.55;0.40;;;;;;;;;;5018630;28;59153;-67
2023/05/25 04:03:24;;;;;;;0.93;0.75;;;;;;;;;;5022065;28;58824;-65
2023/05/25 04:05:49;;;;;;;0.40;0.40;;;;;;;;;;5020209;28;58849;-66
2023/05/25 04:08:22;;;;;;;1.38;0.88;;;;;;;;;;5018709;28;58664;-67
2023/05/25 04:10:47;;;;;;;0.45;0.45;;;;;;;;;;5022120;28;58912;-62
2023/05/25 04:13:13;;;;;;;0.40;0.40;;;;;;;;;;5018468;28;58572;-66
2023/05/25 04:15:38;;;;;;;0.50;0.50;;;;;;;;;;5019893;28;58315;-65
2023/05/25 04:18:03;;;;;;;0.57;0.43;;;;;;;;;;5016926;28;58378;-64
2023/05/25 04:20:28;;;;;;;0.60;0.60;;;;;;;;;;5016127;28;58391;-66
2023/05/25 04:22:54;;;;;;;0.77;0.77;;;;;;;;;;5019045;28;58353;-66
2023/05/25 04:25:19;;;;;;;0.43;0.40;;;;;;;;;;5020180;28;58434;-67
2023/05/25 04:27:45;;;;;;;0.80;0.80;;;;;;;;;;5015537;28;58680;-62
2023/05/25 04:30:10;;;;;;;1.25;0.60;;;;;;;;;;5024224;28;58774;-65
2023/05/25 04:32:36;;;;;;;0.90;0.90;;;;;;;;;;5017441;28;58666;-66
2023/05/25 04:35:02;;;;;;;0.97;0.50;;;;;;;;;;5017756;28;58611;-65
2023/05/25 04:37:27;;;;;;;0.50;0.50;;;;;;;;;;5015159;28;59918;-65
2023/05/25 04:39:53;;;;;;;0.40;0.40;;;;;;;;;;5021826;28;58705;-66
2023/05/25 04:42:18;;;;;;;0.87;0.77;;;;;;;;;;5016944;28;58904;-65
2023/05/25 04:44:43;;;;;;;0.30;0.30;;;;;;;;;;5018186;28;59060;-65
2023/05/25 04:47:09;;;;;;;5.15;2.95;;;;;;;;;;5020840;28;58421;-65
2023/05/25 04:49:34;;;;;;;8.20;4.30;;;;;;;;;;5020797;28;58390;-64
2023/05/25 04:51:59;;;;;;;10.00;3.90;;;;;;;;;;5019290;28;60216;-65
2023/05/25 04:54:24;;;;;;;9.07;4.22;;;;;;;;;;5020403;28;58453;-64
2023/05/25 04:56:50;;;;;;;9.80;4.60;;;;;;;;;;5017660;28;58383;-64
2023/05/25 04:59:15;;;;;;;11.63;3.83;;;;;;;;;;5013633;28;58285;-67
2023/05/25 05:01:40;;;;;;;10.55;4.15;;;;;;;;;;5017902;28;59020;-63
2023/05/25 05:04:06;;;;;;;5.43;3.30;;;;;;;;;;5021698;28;58515;-64
2023/05/25 05:06:31;;;;;;;9.05;3.88;;;;;;;;;;5022814;28;58825;-64
2023/05/25 05:08:57;;;;;;;4.10;3.33;;;;;;;;;;5022846;28;58626;-64
2023/05/25 05:11:22;;;;;;;7.10;2.88;;;;;;;;;;5024709;28;58503;-64
2023/05/25 05:13:47;;;;;;;3.93;2.70;;;;;;;;;;5024234;28;58855;-63
2023/05/25 05:16:12;;;;;;;5.23;2.40;;;;;;;;;;5021730;28;59351;-65
2023/05/25 05:18:37;;;;;;;4.23;2.97;;;;;;;;;;5023449;28;58368;-64
2023/05/25 05:21:03;;;;;;;9.23;2.83;;;;;;;;;;5023770;28;58450;-64
2023/05/25 05:23:28;;;;;;;4.43;2.80;;;;;;;;;;5022250;28;58345;-64
2023/05/25 05:25:53;;;;;;;4.60;2.00;;;;;;;;;;5022104;28;59165;-64
2023/05/25 05:28:18;;;;;;;3.10;2.00;;;;;;;;;;5023452;28;58806;-64
2023/05/25 05:30:45;;;;;;;3.67;1.80;;;;;;;;;;5023050;28;58875;-64
2023/05/25 05:33:10;;;;;;;2.78;1.92;;;;;;;;;;5021786;28;58789;-64
2023/05/25 05:35:35;;;;;;;4.40;1.97;;;;;;;;;;5024200;28;58457;-64
2023/05/25 05:38:01;;;;;;;1.97;1.23;;;;;;;;;;5022329;28;58506;-64
2023/05/25 05:40:26;;;;;;;1.98;1.45;;;;;;;;;;5023524;28;58461;-64
2023/05/25 05:42:51;;;;;;;4.50;2.08;;;;;;;;;;5022505;28;58800;-63
2023/05/25 05:45:16;;;;;;;2.60;1.67;;;;;;;;;;5022266;28;58590;-64
2023/05/25 05:47:41;;;;;;;3.53;1.30;;;;;;;;;;5022581;28;58229;-64
2023/05/25 05:50:06;;;;;;;2.23;1.27;;;;;;;;;;5021941;28;59928;-64
2023/05/25 05:52:32;;;;;;;2.90;1.70;;;;;;;;;;5024395;28;58478;-63
2023/05/25 05:54:57;;;;;;;1.77;1.67;;;;;;;;;;5023346;28;58546;-63
2023/05/25 05:57:22;;;;;;;1.95;1.40;;;;;;;;;;5025398;28;58385;-64
2023/05/25 05:59:47;;;;;;;3.17;1.58;;;;;;;;;;5023665;28;58428;-63
2023/05/25 06:02:12;;;;;;;3.50;1.47;;;;;;;;;;5024290;28;58702;-63
2023/05/25 06:04:37;;;;;;;2.92;1.30;;;;;;;;;;5020972;28;58864;-60
2023/05/25 06:07:03;;;;;;;2.50;2.03;;;;;;;;;;5023435;28;58466;-64
2023/05/25 06:09:28;;;;;;;1.23;1.13;;;;;;;;;;5020462;28;58982;-64
2023/05/25 06:11:53;;;;;;;2.67;1.17;;;;;;;;;;5023715;28;58672;-63
2023/05/25 06:14:18;;;;;;;2.57;1.30;;;;;;;;;;5021400;28;58565;-64
2023/05/25 06:16:43;;;;;;;1.20;1.03;;;;;;;;;;5022405;28;58930;-64
2023/05/25 06:19:08;;;;;;;2.27;1.07;;;;;;;;;;5021584;28;58368;-64
2023/05/25 06:21:34;;;;;;;2.87;1.73;;;;;;;;;;5025509;28;59054;-63
2023/05/25 06:23:59;;;;;;;3.40;1.10;;;;;;;;;;5022674;28;59254;-64
2023/05/25 06:26:24;;;;;;;2.25;1.30;;;;;;;;;;5023754;28;58644;-64
2023/05/25 06:28:50;;;;;;;1.35;0.93;;;;;;;;;;5023719;28;59437;-64
2023/05/25 06:31:15;;;;;;;4.53;1.57;;;;;;;;;;5022559;28;58661;-63
2023/05/25 06:33:40;;;;;;;1.42;0.95;;;;;;;;;;5021666;28;58322;-64
2023/05/25 06:36:06;;;;;;;2.00;0.97;;;;;;;;;;5024679;28;58809;-64
2023/05/25 06:38:31;;;;;;;1.90;1.27;;;;;;;;;;5024471;28;58869;-64
2023/05/25 06:41:01;;;;;;;1.07;1.00;;;;;;;;;;5020807;28;59921;-63
2023/05/25 06:43:26;;;;;;;2.05;1.27;;;;;;;;;;5022826;28;58481;-64
2023/05/25 06:45:51;;;;;;;1.85;1.17;;;;;;;;;;5025690;28;58312;-64
2023/05/25 06:48:16;;;;;;;1.67;0.93;;;;;;;;;;5026966;28;58896;-64
2023/05/25 06:50:41;;;;;;;1.50;1.00;;;;;;;;;;5023539;28;58283;-64
2023/05/25 06:53:07;;;;;;;2.40;1.70;;;;;;;;;;5026243;28;58928;-64
2023/05/25 06:55:32;;;;;;;1.63;0.93;;;;;;;;;;5026183;28;58556;-64
2023/05/25 06:57:57;;;;;;;1.00;0.67;;;;;;;;;;5023414;28;58727;-63
2023/05/25 07:00:22;;;;;;;0.85;0.85;;;;;;;;;;5025095;28;58773;-64
2023/05/25 07:02:47;;;;;;;1.47;0.97;;;;;;;;;;5024199;28;58413;-63
2023/05/25 07:05:12;;;;;;;1.20;0.80;;;;;;;;;;5024897;28;58540;-64
2023/05/25 07:07:38;;;;;;;1.05;0.70;;;;;;;;;;5023485;28;59197;-64
2023/05/25 07:10:03;;;;;;;1.37;0.80;;;;;;;;;;5023933;28;58730;-63
2023/05/25 07:12:28;;;;;;;0.65;0.50;;;;;;;;;;5024967;28;58376;-64
2023/05/25 07:14:53;;;;;;;1.63;0.80;;;;;;;;;;5022805;28;58595;-63
2023/05/25 07:17:18;;;;;;;1.25;0.57;;;;;;;;;;5025875;28;58581;-64
2023/05/25 07:19:44;;;;;;;1.00;0.70;;;;;;;;;;5026453;28;58413;-64
2023/05/25 07:22:09;;;;;;;1.08;0.70;;;;;;;;;;5026515;28;58367;-64
2023/05/25 07:24:35;;;;;;;1.33;0.70;;;;;;;;;;5026025;28;58708;-63
2023/05/25 07:27:01;;;;;;;0.75;0.68;;;;;;;;;;5025289;28;58699;-64
2023/05/25 07:29:26;;;;;;;1.05;0.90;;;;;;;;;;5025787;28;58594;-63
2023/05/25 07:31:51;;;;;;;0.95;0.70;;;;;;;;;;5025720;28;58345;-64
2023/05/25 07:34:16;;;;;;;2.15;0.90;;;;;;;;;;5024596;28;59151;-64
2023/05/25 07:36:41;;;;;;;0.90;0.73;;;;;;;;;;5024693;28;58793;-65
2023/05/25 07:39:07;;;;;;;0.88;0.70;;;;;;;;;;5024126;28;58440;-64
2023/05/25 07:41:33;;;;;;;1.50;0.88;;;;;;;;;;5026188;28;59048;-63
2023/05/25 07:43:58;;;;;;;0.50;0.43;;;;;;;;;;5023274;28;58339;-64
2023/05/25 07:46:24;;;;;;;1.30;0.63;;;;;;;;;;5025296;28;58378;-64
2023/05/25 07:48:49;;;;;;;1.73;1.15;;;;;;;;;;5022751;28;58128;-64
2023/05/25 07:51:15;;;;;;;0.70;0.70;;;;;;;;;;5027876;28;58425;-64
2023/05/25 07:53:41;;;;;;;2.17;0.60;;;;;;;;;;5022444;28;61082;-64
2023/05/25 07:56:06;;;;;;;0.75;0.73;;;;;;;;;;5023983;28;58628;-64
2023/05/25 07:58:31;;;;;;;1.17;0.90;;;;;;;;;;5026168;28;58782;-64
2023/05/25 08:00:56;;;;;;;0.97;0.87;;;;;;;;;;5025457;28;58819;-64
2023/05/25 08:03:22;;;;;;;0.90;0.90;;;;;;;;;;5026149;28;58727;-64
2023/05/25 08:05:47;;;;;;;0.98;0.80;;;;;;;;;;5024194;28;58996;-63
2023/05/25 08:08:13;;;;;;;0.87;0.80;;;;;;;;;;5021230;28;58768;-64
2023/05/25 08:10:38;;;;;;;1.58;0.98;;;;;;;;;;5023957;28;58376;-64
2023/05/25 08:13:03;;;;;;;0.73;0.60;;;;;;;;;;5023331;28;58646;-63
2023/05/25 08:15:28;;;;;;;3.10;0.88;;;;;;;;;;5023805;28;58586;-64
2023/05/25 08:17:55;;;;;;;1.03;0.70;;;;;;;;;;5024834;28;58406;-63
2023/05/25 08:20:20;;;;;;;1.20;1.13;;;;;;;;;;5025542;28;58207;-64
2023/05/25 08:22:45;;;;;;;0.83;0.40;;;;;;;;;;5024111;28;58762;-60
2023/05/25 08:25:10;;;;;;;1.35;0.75;;;;;;;;;;5025452;28;58652;-65
2023/05/25 08:27:36;;;;;;;1.13;1.00;;;;;;;;;;5022288;28;58902;-60
2023/05/25 08:30:01;;;;;;;0.88;0.75;;;;;;;;;;5024582;28;58432;-64
2023/05/25 08:32:26;;;;;;;1.40;1.13;;;;;;;;;;5023966;28;58738;-64
2023/05/25 08:34:51;;;;;;;0.75;0.75;;;;;;;;;;5024805;28;58153;-63
2023/05/25 08:37:18;;;;;;;3.33;0.70;;;;;;;;;;5023122;28;58446;-64
2023/05/25 08:39:43;;;;;;;1.05;0.77;;;;;;;;;;5024529;28;59032;-64
2023/05/25 08:42:09;;;;;;;1.17;0.80;;;;;;;;;;5023232;28;58725;-65
2023/05/25 08:44:34;;;;;;;2.03;0.90;;;;;;;;;;5023876;28;59022;-64
2023/05/25 08:47:04;;;;;;;2.08;0.93;;;;;;;;;;5025512;28;58851;-64
2023/05/25 08:49:30;;;;;;;3.40;1.58;;;;;;;;;;5023119;28;58379;-64
2023/05/25 08:51:55;;;;;;;1.08;0.77;;;;;;;;;;5024521;28;59093;-65
2023/05/25 08:54:27;;;;;;;1.08;0.65;;;;;;;;;;5022260;28;58961;-65
2023/05/25 08:57:04;;;;;;;1.80;1.17;;;;;;;;;;5022718;28;58552;-64
2023/05/25 08:59:36;;;;;;;1.17;0.80;;;;;;;;;;5021398;28;60384;-63
2023/05/25 09:02:07;;;;;;;1.38;0.88;;;;;;;;;;5023091;28;58594;-63
2023/05/25 09:04:33;;;;;;;3.97;1.02;;;;;;;;;;5023490;28;58453;-64
2023/05/25 09:06:58;;;;;;;1.75;0.88;;;;;;;;;;5024336;28;59031;-65
2023/05/25 09:09:23;;;;;;;1.10;0.90;;;;;;;;;;5024055;28;58499;-61
2023/05/25 09:11:49;;;;;;;1.80;1.00;;;;;;;;;;5022984;28;58935;-65
2023/05/25 09:14:14;;;;;;;1.23;0.60;;;;;;;;;;5019880;28;58354;-64
2023/05/25 09:16:39;;;;;;;0.90;0.90;;;;;;;;;;5024044;28;58404;-63
2023/05/25 09:19:04;;;;;;;1.17;1.07;;;;;;;;;;5024155;28;59048;-64
2023/05/25 09:21:30;;;;;;;0.88;0.80;;;;;;;;;;5023694;28;58437;-64
2023/05/25 09:23:55;;;;;;;2.47;0.82;;;;;;;;;;5021127;28;58773;-63
2023/05/25 09:26:20;;;;;;;1.20;1.00;;;;;;;;;;5022343;28;58907;-64
2023/05/25 09:28:46;;;;;;;1.53;0.67;;;;;;;;;;5024448;28;58816;-63
2023/05/25 09:31:12;;;;;;;1.85;1.33;;;;;;;;;;5025503;28;58457;-64
2023/05/25 09:33:40;;;;;;;0.70;0.70;;;;;;;;;;5022602;28;58545;-64
2023/05/25 09:36:05;;;;;;;1.48;0.77;;;;;;;;;;5022704;28;58318;-62
2023/05/25 09:38:31;;;;;;;1.13;0.60;;;;;;;;;;5023114;28;59441;-64
2023/05/25 09:40:56;;;;;;;1.80;1.00;;;;;;;;;;5020392;28;58525;-64
2023/05/25 09:43:21;;;;;;;1.50;1.23;;;;;;;;;;5023008;28;58660;-61
2023/05/25 09:45:46;;;;;;;1.00;0.70;;;;;;;;;;5024485;28;58778;-64
2023/05/25 09:48:12;;;;;;;1.83;1.38;;;;;;;;;;5022635;28;58430;-60
2023/05/25 09:50:37;;;;;;;1.00;0.90;;;;;;;;;;5021237;28;58402;-63
2023/05/25 09:53:02;;;;;;;1.00;0.70;;;;;;;;;;5023568;28;59190;-64
2023/05/25 09:55:28;;;;;;;0.68;0.43;;;;;;;;;;5021265;28;58404;-63
2023/05/25 09:57:54;;;;;;;0.95;0.85;;;;;;;;;;5020503;28;58684;-63
2023/05/25 10:00:20;;;;;;;0.88;0.60;;;;;;;;;;5022550;28;58490;-65
2023/05/25 10:02:45;;;;;;;0.95;0.90;;;;;;;;;;5022787;28;58468;-62
2023/05/25 10:05:10;;;;;;;0.97;0.80;;;;;;;;;;5024664;28;58835;-64
2023/05/25 10:07:39;;;;;;;2.30;0.93;;;;;;;;;;5022153;28;58526;-64
2023/05/25 10:10:06;;;;;;;2.88;1.27;;;;;;;;;;5021283;28;58504;-63
2023/05/25 10:12:32;;;;;;;2.05;0.77;;;;;;;;;;5024055;28;58881;-64
2023/05/25 10:14:59;;;;;;;1.25;1.08;;;;;;;;;;5018992;28;58371;-64
2023/05/25 10:17:25;;;;;;;0.85;0.85;;;;;;;;;;5021251;28;58547;-64
2023/05/25 10:19:55;;;;;;;0.70;0.70;;;;;;;;;;5023967;28;58897;-64
2023/05/25 10:22:25;;;;;;;1.45;0.65;;;;;;;;;;5024757;28;58752;-64
2023/05/25 10:25:02;;;;;;;1.27;0.90;;;;;;;;;;5027587;28;59878;-64
2023/05/25 10:27:32;;;;;;;1.35;0.82;;;;;;;;;;5025406;28;57819;-64
2023/05/25 10:29:58;;;;;;;3.38;1.42;;;;;;;;;;5026187;28;58683;-64
2023/05/25 10:32:24;;;;;;;11.40;3.45;;;;;;;;;;5023024;28;58586;-63
2023/05/25 10:34:51;;;;;;;8.07;2.53;;;;;;;;;;5024663;28;58672;-64
2023/05/25 10:37:17;;;;;;;11.00;2.22;;;;;;;;;;5023333;28;58787;-64
2023/05/25 10:39:43;;;;;;;6.82;2.97;;;;;;;;;;5023751;28;58715;-65
2023/05/25 10:42:08;;;;;;;7.18;2.90;;;;;;;;;;5023612;28;58346;-64
2023/05/25 10:44:33;;;;;;;11.67;3.20;;;;;;;;;;5026126;28;58453;-64
2023/05/25 10:46:58;;;;;;;9.33;3.63;;;;;;;;;;5024865;28;59279;-65
2023/05/25 10:49:32;;;;;;;9.82;3.22;;;;;;;;;;5018411;28;58712;-65
2023/05/25 10:51:58;;;;;;;12.00;3.13;;;;;;;;;;5021681;28;58980;-65
2023/05/25 10:54:27;;;;;;;11.23;3.65;;;;;;;;;;5026650;28;58557;-64
2023/05/25 10:57:13;;;;;;;7.78;2.97;;;;;;;;;;5027870;28;58667;-65
2023/05/25 10:59:43;;;;;;;10.32;2.05;;;;;;;;;;5024952;28;58650;-64
2023/05/25 11:02:09;;;;;;;9.77;3.58;;;;;;;;;;5022711;28;58708;-65
2023/05/25 11:04:36;;;;;;;8.93;3.40;;;;;;;;;;5025363;28;58915;-66
2023/05/25 11:07:01;;;;;;;9.07;2.83;;;;;;;;;;5025808;28;59602;-67
2023/05/25 11:09:27;;;;;;;3.20;1.47;;;;;;;;;;5026538;28;58375;-64
2023/05/25 11:11:54;;;;;;;5.18;1.95;;;;;;;;;;5026120;28;58877;-67
2023/05/25 11:14:20;;;;;;;5.90;2.28;;;;;;;;;;5022235;28;58682;-66
2023/05/25 11:17:02;;;;;;;5.93;1.88;;;;;;;;;;5024950;28;58670;-67
2023/05/25 11:19:37;;;;;;;7.40;2.25;;;;;;;;;;5021588;28;59239;-66
2023/05/25 11:22:11;;;;;;;12.32;2.75;;;;;;;;;;5023853;28;58374;-67
2023/05/25 11:24:36;;;;;;;4.22;2.35;;;;;;;;;;5024809;28;58306;-64
2023/05/25 11:27:04;;;;;;;3.87;2.23;;;;;;;;;;5025652;28;58735;-63
2023/05/25 11:29:30;;;;;;;5.75;2.33;;;;;;;;;;5022590;28;58389;-64
2023/05/25 11:31:55;;;;;;;5.88;2.00;;;;;;;;;;5023860;28;58823;-62
2023/05/25 11:34:23;;;;;;;8.57;2.67;;;;;;;;;;5021845;28;58649;-64
2023/05/25 11:36:52;;;;;;;9.27;3.30;;;;;;;;;;5024536;28;58429;-61
2023/05/25 11:39:19;;;;;;;8.77;3.15;;;;;;;;;;5024730;28;58542;-62
2023/05/25 11:41:47;;;;;;;10.20;3.05;;;;;;;;;;5022878;28;58814;-59
2023/05/25 11:44:12;;;;;;;12.40;4.55;;;;;;;;;;5024034;28;58967;-64
2023/05/25 11:46:40;;;;;;;13.75;3.42;;;;;;;;;;5023766;28;59136;-64
2023/05/25 11:49:05;;;;;;;12.90;3.33;;;;;;;;;;5025214;28;58426;-64
2023/05/25 11:51:30;;;;;;;11.45;3.50;;;;;;;;;;5025969;28;58299;-64
2023/05/25 11:53:55;;;;;;;9.47;3.40;;;;;;;;;;5024009;28;58569;-62
2023/05/25 11:56:23;;;;;;;10.83;4.00;;;;;;;;;;5025413;28;58584;-64
2023/05/25 11:58:49;;;;;;;9.75;2.40;;;;;;;;;;5025393;28;58774;-63
2023/05/25 12:01:24;;;;;;;11.68;3.50;;;;;;;;;;5022525;28;58515;-64
2023/05/25 12:03:51;;;;;;;7.65;2.03;;;;;;;;;;5025617;28;58422;-64
2023/05/25 12:06:26;;;;;;;9.07;3.78;;;;;;;;;;5024814;28;58534;-63
2023/05/25 12:08:51;;;;;;;6.15;2.65;;;;;;;;;;5022250;28;58726;-63
2023/05/25 12:11:17;;;;;;;11.82;3.10;;;;;;;;;;5024271;28;58697;-63
2023/05/25 12:13:42;;;;;;;5.05;2.05;;;;;;;;;;5021885;28;59158;-64
2023/05/25 12:16:08;;;;;;;10.60;4.10;;;;;;;;;;5023290;28;58680;-63
2023/05/25 12:18:33;;;;;;;6.22;3.17;;;;;;;;;;5023946;28;59019;-64
2023/05/25 12:20:58;;;;;;;11.03;3.07;;;;;;;;;;5023096;28;58355;-64
2023/05/25 12:23:24;;;;;;;5.03;2.25;;;;;;;;;;5022966;28;58895;-64
2023/05/25 12:26:03;;;;;;;5.57;2.15;;;;;;;;;;5022519;28;59073;-64
2023/05/25 12:28:29;;;;;;;7.45;2.97;;;;;;;;;;5013172;28;58818;-64
2023/05/25 12:30:54;;;;;;;4.73;2.53;;;;;;;;;;5023712;28;59151;-64
2023/05/25 12:33:20;;;;;;;10.27;2.83;;;;;;;;;;5021807;28;58761;-64
2023/05/25 12:35:46;;;;;;;10.73;3.17;;;;;;;;;;5019496;28;59955;-64
2023/05/25 12:38:12;;;;;;;5.20;2.22;;;;;;;;;;5021688;28;58640;-64
2023/05/25 12:40:37;;;;;;;8.73;2.95;;;;;;;;;;5023665;28;58722;-64
2023/05/25 12:43:02;;;;;;;7.28;2.60;;;;;;;;;;5023892;28;59730;-64
2023/05/25 12:45:27;;;;;;;7.77;2.47;;;;;;;;;;5024588;28;59829;-64
2023/05/25 12:47:52;;;;;;;6.93;2.60;;;;;;;;;;5023749;28;59738;-64
2023/05/25 12:50:18;;;;;;;3.90;2.40;;;;;;;;;;5018559;28;59356;-62
2023/05/25 12:52:45;;;;;;;6.07;2.38;;;;;;;;;;5020313;28;59340;-64
2023/05/25 12:55:19;;;;;;;10.95;2.67;;;;;;;;;;5017403;28;59313;-64
2023/05/25 12:57:45;;;;;;;7.75;2.53;;;;;;;;;;5019742;28;61088;-61
2023/05/25 13:00:11;;;;;;;4.63;2.03;;;;;;;;;;5023117;28;59659;-64
2023/05/25 13:02:36;;;;;;;5.65;2.20;;;;;;;;;;5021307;28;59534;-64
2023/05/25 13:05:02;;;;;;;4.10;2.03;;;;;;;;;;5022654;28;59229;-64
2023/05/25 13:07:27;;;;;;;4.27;2.13;;;;;;;;;;5023901;28;59422;-64
2023/05/25 13:09:53;;;;;;;5.72;2.42;;;;;;;;;;5022332;28;59714;-64
2023/05/25 13:12:18;;;;;;;3.85;1.65;;;;;;;;;;5022157;28;59360;-64
2023/05/25 13:14:43;;;;;;;4.95;1.90;;;;;;;;;;5022370;28;59290;-63
2023/05/25 13:17:08;;;;;;;5.17;1.80;;;;;;;;;;5021585;28;59611;-64
2023/05/25 13:19:34;;;;;;;4.20;1.50;;;;;;;;;;5018753;28;59377;-64
2023/05/25 13:21:59;;;;;;;3.47;1.80;;;;;;;;;;5021459;28;59521;-65
2023/05/25 13:24:24;;;;;;;4.50;2.25;;;;;;;;;;5022318;28;59959;-63
2023/05/25 13:26:49;;;;;;;5.07;1.57;;;;;;;;;;5020338;28;59350;-63
2023/05/25 13:29:14;;;;;;;4.00;1.50;;;;;;;;;;5024575;28;59415;-64
2023/05/25 13:31:40;;;;;;;5.07;1.80;;;;;;;;;;5023483;28;58831;-63
2023/05/25 13:34:05;;;;;;;4.30;1.73;;;;;;;;;;5021043;28;59484;-63
2023/05/25 13:36:33;;;;;;;3.17;1.77;;;;;;;;;;5022747;28;59877;-64
2023/05/25 13:38:59;;;;;;;7.93;2.05;;;;;;;;;;5019806;28;58998;-64
2023/05/25 13:41:25;;;;;;;9.25;3.00;;;;;;;;;;5020977;28;59542;-64
2023/05/25 13:43:51;;;;;;;6.53;2.47;;;;;;;;;;5019917;28;59773;-63
2023/05/25 13:46:17;;;;;;;3.90;1.88;;;;;;;;;;5021099;28;59839;-64
2023/05/25 13:48:46;;;;;;;7.00;2.85;;;;;;;;;;5017656;28;60023;-63
2023/05/25 13:51:11;;;;;;;6.82;2.53;;;;;;;;;;5022776;28;60003;-64
2023/05/25 13:53:36;;;;;;;7.05;2.75;;;;;;;;;;5022208;28;59221;-64
2023/05/25 13:56:02;;;;;;;6.10;2.28;;;;;;;;;;5022472;28;59317;-60
2023/05/25 13:58:27;;;;;;;8.37;2.80;;;;;;;;;;5022408;28;59215;-64
2023/05/25 14:00:52;;;;;;;6.00;2.40;;;;;;;;;;5024170;28;59473;-63
2023/05/25 14:03:17;;;;;;;5.88;2.58;;;;;;;;;;5019806;28;59952;-64
2023/05/25 14:05:42;;;;;;;5.97;1.97;;;;;;;;;;5019013;28;59219;-64
2023/05/25 14:08:07;;;;;;;5.03;1.85;;;;;;;;;;5021502;28;58557;-63
2023/05/25 14:10:32;;;;;;;9.43;2.73;;;;;;;;;;5021840;28;59512;-64
2023/05/25 14:12:58;;;;;;;7.20;1.87;;;;;;;;;;5022249;28;59234;-62
2023/05/25 14:15:24;;;;;;;7.13;2.28;;;;;;;;;;5019947;28;59479;-62
2023/05/25 14:17:49;;;;;;;6.57;2.90;;;;;;;;;;5020793;28;59759;-64
2023/05/25 14:20:19;;;;;;;5.50;2.40;;;;;;;;;;5021578;28;59690;-63
2023/05/25 14:22:44;;;;;;;6.80;3.03;;;;;;;;;;5021992;28;60813;-64
2023/05/25 14:25:10;;;;;;;4.77;2.17;;;;;;;;;;5021654;28;59577;-64
2023/05/25 14:27:35;;;;;;;5.78;1.90;;;;;;;;;;5023859;28;59466;-63
2023/05/25 14:30:00;;;;;;;5.50;2.10;;;;;;;;;;5024421;28;59116;-63
2023/05/25 14:32:25;;;;;;;6.03;2.20;;;;;;;;;;5021622;28;59666;-64
2023/05/25 14:34:50;;;;;;;4.15;1.65;;;;;;;;;;5022676;28;59538;-63
2023/05/25 14:37:15;;;;;;;4.32;2.35;;;;;;;;;;5021213;28;59558;-63